Time;durP1;ratioP1;P1;durP2;ratioP2;P2;SDS_P1;SDS_P2;PMS_P1;PMS_P2;Temp;Humidity;BMP_temperature;BMP_pressure;BME280_temperature;BME280_humidity;BME280_pressure;Samples;Min_cycle;Max_cycle;Signal;HPM_P1;HPM_P2
2023/01/14 00:00:15;;;;;;;10.50;2.20;;;;;;;;;;5015145;28;20039;-63
2023/01/14 00:02:41;;;;;;;12.43;2.90;;;;;;;;;;5013751;28;20543;-63
2023/01/14 00:05:08;;;;;;;8.05;2.30;;;;;;;;;;5015001;28;20050;-63
2023/01/14 00:07:34;;;;;;;16.52;3.03;;;;;;;;;;5014273;28;20574;-63
2023/01/14 00:10:00;;;;;;;10.45;2.53;;;;;;;;;;5027973;28;20125;-63
2023/01/14 00:12:26;;;;;;;14.70;2.13;;;;;;;;;;5033263;28;20053;-63
2023/01/14 00:14:52;;;;;;;17.52;2.75;;;;;;;;;;5034185;28;20538;-63
2023/01/14 00:17:18;;;;;;;10.57;2.42;;;;;;;;;;5033983;28;20034;-63
2023/01/14 00:19:44;;;;;;;17.30;2.80;;;;;;;;;;5034229;28;20033;-63
2023/01/14 00:22:10;;;;;;;8.15;1.92;;;;;;;;;;5032961;28;20087;-63
2023/01/14 00:24:36;;;;;;;15.57;2.33;;;;;;;;;;5038545;28;20045;-63
2023/01/14 00:27:02;;;;;;;10.60;2.38;;;;;;;;;;5025788;28;20180;-63
2023/01/14 00:29:29;;;;;;;11.48;2.50;;;;;;;;;;5033558;28;20526;-63
2023/01/14 00:31:57;;;;;;;13.38;3.00;;;;;;;;;;5033223;28;20045;-63
2023/01/14 00:34:24;;;;;;;11.38;2.65;;;;;;;;;;5031988;28;20144;-63
2023/01/14 00:36:51;;;;;;;13.90;2.63;;;;;;;;;;5033890;28;20506;-63
2023/01/14 00:39:17;;;;;;;16.52;2.38;;;;;;;;;;5024394;28;20434;-63
2023/01/14 00:41:43;;;;;;;13.73;2.40;;;;;;;;;;5032353;28;20044;-63
2023/01/14 00:44:09;;;;;;;11.43;1.95;;;;;;;;;;5032290;28;20084;-63
2023/01/14 00:46:36;;;;;;;11.82;2.17;;;;;;;;;;5033602;28;20120;-63
2023/01/14 00:49:03;;;;;;;13.55;2.75;;;;;;;;;;5033934;28;20041;-63
2023/01/14 00:51:30;;;;;;;10.95;2.75;;;;;;;;;;5033317;28;20041;-63
2023/01/14 00:53:56;;;;;;;16.05;2.95;;;;;;;;;;5039480;28;20046;-64
2023/01/14 00:56:23;;;;;;;14.05;2.50;;;;;;;;;;5019567;28;20042;-64
2023/01/14 00:58:49;;;;;;;13.82;2.45;;;;;;;;;;5013264;28;20514;-64
2023/01/14 01:01:16;;;;;;;10.85;2.38;;;;;;;;;;5022567;28;20487;-64
2023/01/14 01:03:43;;;;;;;11.93;2.22;;;;;;;;;;5024329;28;20058;-64
2023/01/14 01:06:09;;;;;;;13.95;2.80;;;;;;;;;;5033344;28;20042;-64
2023/01/14 01:08:35;;;;;;;10.55;2.03;;;;;;;;;;5032166;28;20041;-64
2023/01/14 01:11:02;;;;;;;12.20;2.70;;;;;;;;;;5033480;28;20041;-64
2023/01/14 01:13:28;;;;;;;12.38;2.88;;;;;;;;;;5031480;28;20069;-64
2023/01/14 01:15:58;;;;;;;12.07;2.05;;;;;;;;;;5039075;28;20076;-64
2023/01/14 01:18:24;;;;;;;13.53;2.70;;;;;;;;;;5026492;28;20057;-63
2023/01/14 01:20:50;;;;;;;15.38;2.65;;;;;;;;;;5013293;28;20046;-64
2023/01/14 01:23:16;;;;;;;13.07;2.15;;;;;;;;;;5012317;28;20042;-64
2023/01/14 01:25:42;;;;;;;16.02;2.80;;;;;;;;;;5011355;28;20049;-64
2023/01/14 01:28:08;;;;;;;12.80;2.47;;;;;;;;;;5013433;28;20399;-64
2023/01/14 01:30:35;;;;;;;9.93;1.98;;;;;;;;;;5021435;28;20038;-64
2023/01/14 01:33:01;;;;;;;18.17;3.28;;;;;;;;;;5020677;28;20042;-64
2023/01/14 01:35:27;;;;;;;14.35;2.90;;;;;;;;;;5012576;28;20038;-64
2023/01/14 01:37:53;;;;;;;13.65;3.00;;;;;;;;;;5012600;28;20088;-64
2023/01/14 01:40:19;;;;;;;13.13;2.72;;;;;;;;;;5011802;28;20046;-64
2023/01/14 01:42:55;;;;;;;18.27;2.70;;;;;;;;;;5012223;28;20053;-64
2023/01/14 01:45:25;;;;;;;19.92;2.75;;;;;;;;;;5027255;28;20037;-64
2023/01/14 01:47:54;;;;;;;16.05;2.78;;;;;;;;;;5014291;28;20050;-64
2023/01/14 01:50:20;;;;;;;14.55;2.53;;;;;;;;;;5012287;28;20149;-64
2023/01/14 01:52:46;;;;;;;15.30;2.55;;;;;;;;;;5012719;28;20046;-64
2023/01/14 01:55:12;;;;;;;16.17;2.67;;;;;;;;;;5012531;28;20530;-64
2023/01/14 01:57:38;;;;;;;17.05;2.80;;;;;;;;;;5012512;28;20129;-64
2023/01/14 02:00:07;;;;;;;13.32;2.90;;;;;;;;;;5028959;28;20087;-64
2023/01/14 02:02:33;;;;;;;16.30;2.78;;;;;;;;;;5016364;28;20050;-64
2023/01/14 02:04:59;;;;;;;15.90;2.53;;;;;;;;;;5010886;28;20081;-63
2023/01/14 02:07:26;;;;;;;14.23;2.65;;;;;;;;;;5012830;28;20045;-64
2023/01/14 02:10:03;;;;;;;15.68;2.65;;;;;;;;;;5011919;28;20050;-64
2023/01/14 02:12:50;;;;;;;15.48;2.67;;;;;;;;;;5014581;28;20073;-64
2023/01/14 02:15:19;;;;;;;13.18;2.67;;;;;;;;;;5017632;28;20042;-64
2023/01/14 02:18:04;;;;;;;14.90;3.28;;;;;;;;;;5031217;28;20063;-64
2023/01/14 02:20:32;;;;;;;14.13;2.92;;;;;;;;;;5032150;28;20125;-64
2023/01/14 02:25:55;;;;;;;15.13;2.28;;;;;;;;;;5026946;28;20084;-68
2023/01/14 02:28:30;;;;;;;14.23;2.53;;;;;;;;;;5030728;28;20092;-68
2023/01/14 02:31:11;;;;;;;14.30;2.80;;;;;;;;;;5031499;28;20041;-68
2023/01/14 02:33:40;;;;;;;20.52;3.65;;;;;;;;;;5031278;28;20065;-67
2023/01/14 02:36:15;;;;;;;20.38;3.00;;;;;;;;;;5031291;28;20048;-68
2023/01/14 02:38:44;;;;;;;14.55;3.00;;;;;;;;;;5031253;28;20511;-68
2023/01/14 02:41:19;;;;;;;14.90;2.40;;;;;;;;;;5030788;28;20045;-67
2023/01/14 02:46:32;;;;;;;21.75;3.47;;;;;;;;;;5031554;28;20045;-68
2023/01/14 02:49:00;;;;;;;13.85;2.80;;;;;;;;;;5030849;28;20053;-67
2023/01/14 02:51:26;;;;;;;13.23;2.65;;;;;;;;;;5031567;28;20106;-67
2023/01/14 02:53:52;;;;;;;13.32;2.42;;;;;;;;;;5031211;28;20042;-68
2023/01/14 02:56:18;;;;;;;12.88;2.50;;;;;;;;;;5026356;28;20100;-67
2023/01/14 02:59:03;;;;;;;15.68;2.78;;;;;;;;;;5035131;28;20087;-68
2023/01/14 03:01:43;;;;;;;16.42;2.67;;;;;;;;;;5032464;28;20388;-67
2023/01/14 03:04:29;;;;;;;14.77;2.05;;;;;;;;;;5027999;28;20504;-67
2023/01/14 03:06:55;;;;;;;11.68;2.38;;;;;;;;;;5034061;28;20041;-67
2023/01/14 03:09:31;;;;;;;9.43;2.47;;;;;;;;;;5028234;28;20044;-67
2023/01/14 03:12:05;;;;;;;17.92;3.20;;;;;;;;;;5033651;28;20045;-67
2023/01/14 03:14:34;;;;;;;10.48;2.10;;;;;;;;;;5035602;28;20041;-67
2023/01/14 03:17:04;;;;;;;15.35;2.70;;;;;;;;;;5034564;28;20503;-68
2023/01/14 03:19:34;;;;;;;18.70;2.70;;;;;;;;;;5035504;28;20116;-67
2023/01/14 03:22:02;;;;;;;15.73;2.72;;;;;;;;;;5034784;28;20521;-67
2023/01/14 03:24:31;;;;;;;13.13;2.55;;;;;;;;;;5027570;28;20045;-68
2023/01/14 03:27:00;;;;;;;11.93;2.97;;;;;;;;;;5034002;28;20530;-67
2023/01/14 03:29:34;;;;;;;14.82;2.20;;;;;;;;;;5034934;28;20045;-67
2023/01/14 03:32:03;;;;;;;16.38;3.30;;;;;;;;;;5034746;28;20042;-67
2023/01/14 03:34:31;;;;;;;14.70;2.38;;;;;;;;;;5034648;28;20554;-67
2023/01/14 03:36:58;;;;;;;12.73;2.10;;;;;;;;;;5034774;28;20053;-67
2023/01/14 03:39:26;;;;;;;15.27;2.08;;;;;;;;;;5026104;28;20112;-67
2023/01/14 03:44:58;;;;;;;17.08;2.75;;;;;;;;;;5034006;28;20514;-67
2023/01/14 03:47:25;;;;;;;17.50;2.40;;;;;;;;;;5034626;28;20068;-68
2023/01/14 03:49:52;;;;;;;15.45;2.50;;;;;;;;;;5034972;28;20380;-67
2023/01/14 03:52:18;;;;;;;16.52;2.90;;;;;;;;;;5033432;28;20064;-67
2023/01/14 03:54:49;;;;;;;13.07;2.35;;;;;;;;;;5026449;28;20554;-67
2023/01/14 03:57:15;;;;;;;12.70;2.28;;;;;;;;;;5034091;28;20483;-67
2023/01/14 03:59:46;;;;;;;17.98;2.60;;;;;;;;;;5026153;28;20041;-67
2023/01/14 04:02:13;;;;;;;14.15;2.35;;;;;;;;;;5034069;28;20037;-67
2023/01/14 04:04:39;;;;;;;13.05;2.45;;;;;;;;;;5034640;28;20045;-68
2023/01/14 04:07:06;;;;;;;13.57;2.85;;;;;;;;;;5029001;28;20042;-67
2023/01/14 04:09:32;;;;;;;20.58;2.60;;;;;;;;;;5029968;28;20045;-66
2023/01/14 04:11:58;;;;;;;19.55;3.05;;;;;;;;;;5033413;28;20052;-67
2023/01/14 04:17:09;;;;;;;14.25;2.65;;;;;;;;;;5034309;28;20049;-67
2023/01/14 04:19:35;;;;;;;14.55;2.90;;;;;;;;;;5033555;28;20120;-67
2023/01/14 04:22:01;;;;;;;13.60;2.72;;;;;;;;;;5029816;28;20120;-67
2023/01/14 04:24:27;;;;;;;14.05;2.63;;;;;;;;;;5026422;28;20439;-67
2023/01/14 04:26:53;;;;;;;13.70;3.40;;;;;;;;;;5032326;28;20473;-67
2023/01/14 04:29:19;;;;;;;15.52;3.20;;;;;;;;;;5033918;28;20116;-67
2023/01/14 04:31:45;;;;;;;19.08;4.07;;;;;;;;;;5034109;28;20045;-67
2023/01/14 04:34:11;;;;;;;14.63;3.33;;;;;;;;;;5032381;28;20133;-68
2023/01/14 04:36:37;;;;;;;15.70;3.10;;;;;;;;;;5024099;28;20057;-67
2023/01/14 04:39:03;;;;;;;20.30;3.28;;;;;;;;;;5033852;28;20041;-68
2023/01/14 04:44:13;;;;;;;19.33;3.45;;;;;;;;;;5033962;28;20065;-68
2023/01/14 04:46:39;;;;;;;20.95;3.72;;;;;;;;;;5033005;28;20045;-67
2023/01/14 04:49:05;;;;;;;16.65;3.67;;;;;;;;;;5033927;28;20483;-67
2023/01/14 04:51:31;;;;;;;17.30;2.90;;;;;;;;;;5031811;28;20044;-68
2023/01/14 04:53:57;;;;;;;18.83;3.45;;;;;;;;;;5033519;28;20125;-68
2023/01/14 04:56:23;;;;;;;18.15;2.88;;;;;;;;;;5033488;28;20045;-67
2023/01/14 04:58:49;;;;;;;13.18;2.35;;;;;;;;;;5033492;28;20457;-68
2023/01/14 05:01:15;;;;;;;21.40;2.97;;;;;;;;;;5026076;28;20554;-67
2023/01/14 05:03:41;;;;;;;18.40;3.85;;;;;;;;;;5028848;28;20120;-68
2023/01/14 05:06:07;;;;;;;15.15;3.22;;;;;;;;;;5031923;28;20049;-67
2023/01/14 05:08:33;;;;;;;21.88;3.65;;;;;;;;;;5032769;28;20038;-68
2023/01/14 05:10:59;;;;;;;20.13;3.35;;;;;;;;;;5033498;28;20041;-67
2023/01/14 05:13:25;;;;;;;19.67;3.30;;;;;;;;;;5031607;28;20475;-67
2023/01/14 05:15:51;;;;;;;18.90;3.20;;;;;;;;;;5033156;28;20113;-67
2023/01/14 05:18:17;;;;;;;15.95;2.92;;;;;;;;;;5032157;28;20551;-67
2023/01/14 05:20:44;;;;;;;13.93;3.42;;;;;;;;;;5030663;28;20037;-67
2023/01/14 05:23:11;;;;;;;15.65;3.08;;;;;;;;;;5025551;28;20067;-68
2023/01/14 05:25:37;;;;;;;20.65;4.10;;;;;;;;;;5031350;28;20041;-67
2023/01/14 05:28:08;;;;;;;18.13;3.38;;;;;;;;;;5032710;28;20116;-68
2023/01/14 05:30:34;;;;;;;16.30;3.63;;;;;;;;;;5032693;28;20033;-68
2023/01/14 05:33:01;;;;;;;22.08;4.03;;;;;;;;;;5032044;28;20409;-68
2023/01/14 05:35:27;;;;;;;23.70;4.15;;;;;;;;;;5031785;28;20429;-68
2023/01/14 05:37:53;;;;;;;21.38;4.35;;;;;;;;;;5032049;28;20034;-68
2023/01/14 05:40:19;;;;;;;16.10;3.45;;;;;;;;;;5032791;28;20510;-68
2023/01/14 05:45:48;;;;;;;23.27;4.40;;;;;;;;;;5032520;28;20075;-68
2023/01/14 05:48:14;;;;;;;18.30;3.85;;;;;;;;;;5032256;28;20037;-68
2023/01/14 05:50:40;;;;;;;26.73;5.03;;;;;;;;;;5031654;28;20041;-67
2023/01/14 05:53:07;;;;;;;24.08;4.75;;;;;;;;;;5031053;28;20402;-68
2023/01/14 05:55:33;;;;;;;21.48;4.93;;;;;;;;;;5032241;28;20465;-68
2023/01/14 05:58:00;;;;;;;19.85;4.57;;;;;;;;;;5031929;28;20037;-67
2023/01/14 06:06:21;;;;;;;23.15;4.88;;;;;;;;;;5027254;28;20399;-68
2023/01/14 06:08:48;;;;;;;26.77;5.10;;;;;;;;;;5029979;28;20041;-67
2023/01/14 06:11:14;;;;;;;28.10;4.75;;;;;;;;;;5032378;28;20045;-67
2023/01/14 06:13:41;;;;;;;22.20;5.18;;;;;;;;;;5031744;28;20558;-67
2023/01/14 06:16:07;;;;;;;21.75;4.60;;;;;;;;;;5031814;28;20050;-68
2023/01/14 06:18:42;;;;;;;29.25;4.93;;;;;;;;;;5031741;28;20121;-67
2023/01/14 06:21:09;;;;;;;22.95;5.43;;;;;;;;;;5026825;28;20076;-68
2023/01/14 06:23:35;;;;;;;25.17;5.07;;;;;;;;;;5027596;28;20041;-68
2023/01/14 06:26:01;;;;;;;21.70;4.43;;;;;;;;;;5032235;28;20102;-68
2023/01/14 06:28:30;;;;;;;23.58;4.85;;;;;;;;;;5031690;28;20434;-67
2023/01/14 06:30:56;;;;;;;27.00;4.80;;;;;;;;;;5031177;28;20041;-68
2023/01/14 06:33:22;;;;;;;23.63;5.43;;;;;;;;;;5030371;28;20075;-68
2023/01/14 06:35:49;;;;;;;25.77;4.20;;;;;;;;;;5030858;28;20049;-68
2023/01/14 06:38:16;;;;;;;18.05;3.65;;;;;;;;;;5031890;28;20168;-67
2023/01/14 06:40:42;;;;;;;27.85;4.63;;;;;;;;;;5031544;28;20541;-68
2023/01/14 06:43:08;;;;;;;30.98;4.38;;;;;;;;;;5031449;28;20128;-67
2023/01/14 06:45:35;;;;;;;25.67;5.20;;;;;;;;;;5031907;28;20041;-68
2023/01/14 06:48:01;;;;;;;28.45;5.32;;;;;;;;;;5031192;28;20046;-68
2023/01/14 06:50:26;;;;;;;29.92;4.45;;;;;;;;;;5023998;28;20065;-68
2023/01/14 06:52:52;;;;;;;29.55;4.90;;;;;;;;;;5030045;28;20038;-67
2023/01/14 06:55:22;;;;;;;22.20;4.72;;;;;;;;;;5031554;28;20034;-68
2023/01/14 06:57:48;;;;;;;24.17;5.07;;;;;;;;;;5031031;28;20038;-68
2023/01/14 07:00:15;;;;;;;22.92;4.53;;;;;;;;;;5031709;28;20426;-68
2023/01/14 07:02:41;;;;;;;23.60;4.57;;;;;;;;;;5031432;28;20063;-68
2023/01/14 07:05:07;;;;;;;26.08;4.57;;;;;;;;;;5022455;28;20487;-67
2023/01/14 07:07:33;;;;;;;25.90;4.82;;;;;;;;;;5031571;28;20052;-67
2023/01/14 07:09:59;;;;;;;23.85;4.03;;;;;;;;;;5031409;28;20041;-67
2023/01/14 07:12:25;;;;;;;25.17;4.85;;;;;;;;;;5030674;28;20046;-68
2023/01/14 07:14:51;;;;;;;25.35;4.43;;;;;;;;;;5031174;28;20041;-68
2023/01/14 07:17:17;;;;;;;23.88;4.55;;;;;;;;;;5031312;28;20041;-68
2023/01/14 07:19:43;;;;;;;20.52;4.63;;;;;;;;;;5022088;28;20050;-67
2023/01/14 07:22:09;;;;;;;20.17;4.70;;;;;;;;;;5030994;28;20052;-68
2023/01/14 07:24:37;;;;;;;23.92;4.38;;;;;;;;;;5030055;28;20380;-68
2023/01/14 07:27:03;;;;;;;29.52;4.70;;;;;;;;;;5031394;28;20048;-67
2023/01/14 07:29:29;;;;;;;28.08;4.88;;;;;;;;;;5030997;28;20398;-67
2023/01/14 07:31:56;;;;;;;33.17;5.20;;;;;;;;;;5030228;28;20075;-68
2023/01/14 07:34:22;;;;;;;22.35;4.10;;;;;;;;;;5022447;28;20045;-67
2023/01/14 07:36:48;;;;;;;23.95;4.72;;;;;;;;;;5031540;28;20095;-67
2023/01/14 07:39:14;;;;;;;22.23;4.25;;;;;;;;;;5029711;28;20514;-67
2023/01/14 07:41:40;;;;;;;23.80;4.35;;;;;;;;;;5032604;28;20483;-67
2023/01/14 07:44:06;;;;;;;22.08;4.10;;;;;;;;;;5034742;28;20049;-68
2023/01/14 07:46:33;;;;;;;23.63;4.13;;;;;;;;;;5034235;28;20080;-67
2023/01/14 07:48:59;;;;;;;20.95;4.30;;;;;;;;;;5025845;28;20072;-67
2023/01/14 07:51:25;;;;;;;28.50;5.32;;;;;;;;;;5034876;28;20045;-67
2023/01/14 07:53:51;;;;;;;22.65;4.63;;;;;;;;;;5034613;28;20040;-67
2023/01/14 07:56:17;;;;;;;26.95;4.70;;;;;;;;;;5033992;28;20041;-67
2023/01/14 07:58:43;;;;;;;20.88;3.90;;;;;;;;;;5034457;28;20079;-67
2023/01/14 08:01:10;;;;;;;21.40;3.92;;;;;;;;;;5031239;28;20041;-67
2023/01/14 08:03:37;;;;;;;21.20;4.75;;;;;;;;;;5033698;28;20522;-67
2023/01/14 08:06:06;;;;;;;17.88;3.65;;;;;;;;;;5034595;28;20045;-67
2023/01/14 08:08:32;;;;;;;21.27;4.70;;;;;;;;;;5034548;28;20056;-67
2023/01/14 08:11:01;;;;;;;27.58;4.43;;;;;;;;;;5034519;28;20046;-67
2023/01/14 08:13:28;;;;;;;23.42;3.97;;;;;;;;;;5033190;28;20124;-67
2023/01/14 08:15:57;;;;;;;18.63;3.88;;;;;;;;;;5031334;28;20034;-67
2023/01/14 08:18:24;;;;;;;19.23;3.25;;;;;;;;;;5028461;28;20494;-67
2023/01/14 08:20:59;;;;;;;27.50;4.70;;;;;;;;;;5034189;28;20547;-67
2023/01/14 08:23:26;;;;;;;18.58;3.67;;;;;;;;;;5034036;28;20044;-67
2023/01/14 08:25:52;;;;;;;22.88;3.35;;;;;;;;;;5093164;22;20078;-62
2023/01/14 08:28:18;;;;;;;18.63;3.42;;;;;;;;;;5088251;28;20102;-62
2023/01/14 08:30:44;;;;;;;24.75;4.07;;;;;;;;;;5082175;28;20120;-62
2023/01/14 08:33:10;;;;;;;11.73;2.97;;;;;;;;;;5080925;28;20127;-61
2023/01/14 08:35:39;;;;;;;19.15;3.40;;;;;;;;;;5058141;28;20040;-62
2023/01/14 08:38:06;;;;;;;23.52;3.88;;;;;;;;;;5053517;28;20044;-62
2023/01/14 08:40:32;;;;;;;15.93;3.28;;;;;;;;;;5052911;28;20102;-62
2023/01/14 08:42:58;;;;;;;14.48;3.00;;;;;;;;;;5053818;28;20116;-62
2023/01/14 08:45:24;;;;;;;14.85;3.17;;;;;;;;;;5058839;28;20051;-62
2023/01/14 08:47:50;;;;;;;17.27;4.05;;;;;;;;;;5071619;28;20437;-62
2023/01/14 08:50:16;;;;;;;19.48;3.22;;;;;;;;;;5073748;28;20044;-62
2023/01/14 08:52:42;;;;;;;20.38;3.97;;;;;;;;;;5072280;28;20062;-62
2023/01/14 08:55:08;;;;;;;15.57;3.13;;;;;;;;;;5072354;28;20033;-62
2023/01/14 08:57:34;;;;;;;17.95;3.08;;;;;;;;;;5073559;28;20040;-62
2023/01/14 09:00:01;;;;;;;13.63;2.67;;;;;;;;;;5064552;28;20044;-62
2023/01/14 09:02:27;;;;;;;22.85;4.50;;;;;;;;;;5057761;28;20051;-62
2023/01/14 09:04:53;;;;;;;19.67;3.55;;;;;;;;;;5052882;28;20037;-62
2023/01/14 09:18:21;;;;;;;16.52;3.63;;;;;;;;;;5052835;28;20819;-62
2023/01/14 09:20:47;;;;;;;15.90;3.10;;;;;;;;;;5052807;28;20032;-62
2023/01/14 09:23:13;;;;;;;17.00;3.20;;;;;;;;;;5052982;28;20549;-62
2023/01/14 09:25:39;;;;;;;13.73;2.78;;;;;;;;;;5052917;28;20041;-62
2023/01/14 09:28:05;;;;;;;14.15;2.85;;;;;;;;;;5059495;28;20071;-62
2023/01/14 09:30:31;;;;;;;14.57;2.90;;;;;;;;;;5059990;28;20076;-62
2023/01/14 09:32:58;;;;;;;10.95;3.25;;;;;;;;;;5051357;28;20045;-62
2023/01/14 09:35:24;;;;;;;12.52;3.08;;;;;;;;;;5051948;28;20047;-62
2023/01/14 09:37:50;;;;;;;9.75;2.00;;;;;;;;;;5052895;28;20041;-62
2023/01/14 09:40:16;;;;;;;16.40;3.33;;;;;;;;;;5050860;28;20510;-62
2023/01/14 09:42:45;;;;;;;11.50;3.08;;;;;;;;;;5053622;28;20037;-63
2023/01/14 09:45:11;;;;;;;12.43;2.40;;;;;;;;;;5058829;28;20517;-62
2023/01/14 09:47:37;;;;;;;13.93;3.22;;;;;;;;;;5065047;28;20513;-62
2023/01/14 09:50:07;;;;;;;16.15;3.10;;;;;;;;;;5059973;28;20537;-62
2023/01/14 09:52:32;;;;;;;8.68;2.35;;;;;;;;;;5050206;28;20049;-62
2023/01/14 09:55:06;;;;;;;11.70;2.92;;;;;;;;;;5051244;28;20047;-63
2023/01/14 09:57:38;;;;;;;12.43;2.67;;;;;;;;;;5060543;28;20086;-62
2023/01/14 10:00:25;;;;;;;11.05;2.70;;;;;;;;;;5052594;28;20086;-62
2023/01/14 10:02:55;;;;;;;8.98;2.88;;;;;;;;;;5052180;28;20053;-62
2023/01/14 10:05:22;;;;;;;11.10;2.50;;;;;;;;;;5051663;28;20514;-62
2023/01/14 10:07:49;;;;;;;8.65;3.00;;;;;;;;;;5051033;28;20037;-62
2023/01/14 10:10:26;;;;;;;8.32;2.40;;;;;;;;;;5050593;28;20049;-62
2023/01/14 10:12:54;;;;;;;10.13;2.92;;;;;;;;;;5061541;28;20049;-62
2023/01/14 10:15:23;;;;;;;10.27;3.15;;;;;;;;;;5050837;28;20099;-62
2023/01/14 10:17:52;;;;;;;8.70;2.83;;;;;;;;;;5050593;28;20483;-62
2023/01/14 10:20:38;;;;;;;10.30;3.10;;;;;;;;;;5051956;28;20473;-62
2023/01/14 10:23:14;;;;;;;7.85;3.00;;;;;;;;;;5050586;28;20076;-63
2023/01/14 10:25:44;;;;;;;8.25;2.55;;;;;;;;;;5060903;28;20044;-62
2023/01/14 10:28:13;;;;;;;8.20;2.78;;;;;;;;;;5059077;28;20075;-62
2023/01/14 10:30:40;;;;;;;10.57;3.03;;;;;;;;;;5051882;28;20099;-62
2023/01/14 10:33:06;;;;;;;6.78;2.97;;;;;;;;;;5050258;28;20480;-62
2023/01/14 10:35:34;;;;;;;10.70;3.28;;;;;;;;;;5058897;28;20050;-62
2023/01/14 10:38:00;;;;;;;6.55;2.58;;;;;;;;;;5060043;28;20562;-62
2023/01/14 10:40:27;;;;;;;7.18;3.08;;;;;;;;;;5054598;28;20036;-62
2023/01/14 10:42:54;;;;;;;8.68;3.15;;;;;;;;;;5070689;28;20486;-62
2023/01/14 10:45:20;;;;;;;6.75;3.10;;;;;;;;;;5071752;28;20045;-62
2023/01/14 10:47:47;;;;;;;8.50;3.08;;;;;;;;;;5071379;28;20044;-62
2023/01/14 10:50:22;;;;;;;7.55;2.97;;;;;;;;;;5065714;28;20048;-62
2023/01/14 10:52:49;;;;;;;6.88;2.67;;;;;;;;;;5067701;28;20049;-62
2023/01/14 10:55:21;;;;;;;11.15;2.97;;;;;;;;;;5071683;28;20048;-62
2023/01/14 10:57:53;;;;;;;7.07;2.60;;;;;;;;;;5071333;28;20501;-62
2023/01/14 11:00:31;;;;;;;6.30;2.20;;;;;;;;;;5071454;28;20036;-62
2023/01/14 11:02:58;;;;;;;8.75;2.35;;;;;;;;;;5069040;28;20087;-62
2023/01/14 11:05:26;;;;;;;11.05;2.85;;;;;;;;;;5064118;28;20037;-62
2023/01/14 11:07:53;;;;;;;5.47;1.80;;;;;;;;;;5050172;28;20440;-61
2023/01/14 11:10:23;;;;;;;9.52;2.60;;;;;;;;;;5051226;28;20043;-62
2023/01/14 11:12:51;;;;;;;7.05;2.22;;;;;;;;;;5051078;28;20386;-62
2023/01/14 11:15:32;;;;;;;2.80;1.70;;;;;;;;;;5051548;28;20037;-62
2023/01/14 11:18:16;;;;;;;4.95;1.83;;;;;;;;;;5059710;28;20035;-62
2023/01/14 11:20:42;;;;;;;7.07;1.50;;;;;;;;;;5056315;28;20045;-62
2023/01/14 11:23:15;;;;;;;8.93;1.88;;;;;;;;;;5054116;28;20486;-63
2023/01/14 11:25:41;;;;;;;6.82;1.77;;;;;;;;;;5055115;28;20076;-62
2023/01/14 11:28:08;;;;;;;3.60;1.83;;;;;;;;;;5055001;28;20040;-62
2023/01/14 11:30:34;;;;;;;7.18;2.42;;;;;;;;;;5055231;28;20049;-62
2023/01/14 11:33:01;;;;;;;5.93;2.40;;;;;;;;;;5062458;28;20076;-62
2023/01/14 11:35:30;;;;;;;6.65;2.50;;;;;;;;;;5059648;28;20045;-62
2023/01/14 11:37:57;;;;;;;4.15;1.80;;;;;;;;;;5054417;28;20530;-62
2023/01/14 11:41:28;;;;;;;7.00;2.00;;;;;;;;;;5055153;28;20041;-62
2023/01/14 11:43:11;;;;;;;7.60;2.15;;;;;;;;;;5054269;28;20059;-62
2023/01/14 11:45:37;;;;;;;8.30;2.08;;;;;;;;;;5059809;28;20086;-62
2023/01/14 11:48:21;;;;;;;5.25;1.92;;;;;;;;;;5062459;28;20426;-62
2023/01/14 11:50:55;;;;;;;6.30;1.98;;;;;;;;;;5054902;28;20403;-62
2023/01/14 11:53:26;;;;;;;7.00;2.03;;;;;;;;;;5052837;28;20129;-62
2023/01/14 11:55:54;;;;;;;4.43;1.83;;;;;;;;;;5054612;28;20044;-62
2023/01/14 11:58:25;;;;;;;2.75;1.27;;;;;;;;;;5054274;28;20116;-62
2023/01/14 12:00:57;;;;;;;4.22;1.52;;;;;;;;;;5060069;28;20037;-62
2023/01/14 12:03:23;;;;;;;4.30;1.35;;;;;;;;;;5060721;28;20391;-62
2023/01/14 12:05:50;;;;;;;3.88;1.80;;;;;;;;;;5054579;28;20047;-62
2023/01/14 12:08:18;;;;;;;5.63;1.65;;;;;;;;;;5054258;28;20375;-62
2023/01/14 12:10:47;;;;;;;4.15;2.08;;;;;;;;;;5054488;28;20045;-62
2023/01/14 12:18:53;;;;;;;6.03;1.80;;;;;;;;;;5053942;28;20536;-62
2023/01/14 12:21:25;;;;;;;3.80;1.92;;;;;;;;;;5055943;28;20409;-62
2023/01/14 12:23:55;;;;;;;2.50;1.40;;;;;;;;;;5062926;28;20051;-62
2023/01/14 12:26:24;;;;;;;4.97;1.67;;;;;;;;;;5053032;28;20533;-62
2023/01/14 12:28:55;;;;;;;4.00;1.40;;;;;;;;;;5052899;28;20073;-62
2023/01/14 12:31:27;;;;;;;4.75;1.52;;;;;;;;;;5053084;28;20080;-62
2023/01/14 12:34:21;;;;;;;3.47;1.60;;;;;;;;;;5053531;28;20041;-62
2023/01/14 12:36:58;;;;;;;2.72;1.23;;;;;;;;;;5043473;28;20402;-62
2023/01/14 12:47:54;;;;;;;3.72;1.10;;;;;;;;;;5053701;28;20126;-62
2023/01/14 12:50:20;;;;;;;4.40;1.40;;;;;;;;;;5056649;28;20044;-63
2023/01/14 12:52:48;;;;;;;5.07;1.25;;;;;;;;;;5061199;28;20044;-62
2023/01/14 12:55:20;;;;;;;2.70;1.10;;;;;;;;;;5053725;28;20043;-61
2023/01/14 12:57:49;;;;;;;4.38;1.42;;;;;;;;;;5053720;28;20446;-61
2023/01/14 13:00:18;;;;;;;2.42;1.27;;;;;;;;;;5053241;28;20571;-62
2023/01/14 13:02:47;;;;;;;2.42;1.33;;;;;;;;;;5052651;28;20419;-62
2023/01/14 13:05:16;;;;;;;1.40;0.88;;;;;;;;;;5057950;28;20296;-62
2023/01/14 13:07:48;;;;;;;2.70;1.13;;;;;;;;;;5061747;28;20514;-62
2023/01/14 13:10:27;;;;;;;3.05;1.10;;;;;;;;;;5052943;28;20498;-62
2023/01/14 13:12:53;;;;;;;3.13;1.23;;;;;;;;;;5057690;28;20119;-62
2023/01/14 13:15:19;;;;;;;2.03;1.08;;;;;;;;;;5071351;28;20036;-62
2023/01/14 13:17:54;;;;;;;4.13;1.20;;;;;;;;;;5070251;28;20463;-62
2023/01/14 13:20:20;;;;;;;4.32;1.00;;;;;;;;;;5066979;28;20524;-62
2023/01/14 13:22:50;;;;;;;2.28;1.20;;;;;;;;;;5071347;28;20115;-62
2023/01/14 13:25:22;;;;;;;3.60;1.00;;;;;;;;;;5072909;28;20123;-62
2023/01/14 13:27:48;;;;;;;1.45;1.05;;;;;;;;;;5072540;28;20052;-63
2023/01/14 13:30:17;;;;;;;1.67;0.90;;;;;;;;;;5070589;28;20608;-62
2023/01/14 13:33:02;;;;;;;3.10;1.15;;;;;;;;;;5063297;28;20051;-62
2023/01/14 13:35:29;;;;;;;1.30;1.02;;;;;;;;;;5052442;28;20091;-61
2023/01/14 13:37:59;;;;;;;1.45;0.60;;;;;;;;;;5052919;28;20041;-62
2023/01/14 13:40:27;;;;;;;2.45;1.10;;;;;;;;;;5051906;28;20044;-62
2023/01/14 13:42:57;;;;;;;2.35;1.20;;;;;;;;;;5052345;28;20044;-62
2023/01/14 13:45:30;;;;;;;1.20;0.80;;;;;;;;;;5058266;28;20513;-62
2023/01/14 13:47:58;;;;;;;1.63;0.70;;;;;;;;;;5064295;28;20048;-62
2023/01/14 13:50:33;;;;;;;2.55;0.82;;;;;;;;;;5071262;28;20040;-62
2023/01/14 13:53:04;;;;;;;1.55;0.65;;;;;;;;;;5071999;28;20045;-62
2023/01/14 13:55:36;;;;;;;2.38;0.70;;;;;;;;;;5072021;28;20485;-62
2023/01/14 13:58:05;;;;;;;0.98;0.70;;;;;;;;;;5060455;28;20115;-62
2023/01/14 14:00:44;;;;;;;1.77;0.75;;;;;;;;;;5052150;28;20037;-62
2023/01/14 14:03:12;;;;;;;1.08;0.80;;;;;;;;;;5051872;28;20116;-62
2023/01/14 14:05:38;;;;;;;0.95;0.60;;;;;;;;;;5051767;28;20056;-62
2023/01/14 14:08:07;;;;;;;3.05;0.95;;;;;;;;;;5052045;28;20041;-62
2023/01/14 14:11:03;;;;;;;1.25;0.75;;;;;;;;;;5059672;28;20680;-62
2023/01/14 14:14:04;;;;;;;2.50;0.85;;;;;;;;;;5050285;28;20061;-63
2023/01/14 14:16:42;;;;;;;1.83;0.55;;;;;;;;;;5071338;28;20082;-62
2023/01/14 14:19:15;;;;;;;1.25;0.70;;;;;;;;;;5071800;28;20086;-62
2023/01/14 14:21:44;;;;;;;1.92;0.80;;;;;;;;;;5072061;28;20074;-62
2023/01/14 14:26:41;;;;;;;3.55;0.80;;;;;;;;;;5007962;28;20045;-69
2023/01/14 14:29:14;;;;;;;1.17;1.08;;;;;;;;;;5011915;28;20049;-69
2023/01/14 14:31:42;;;;;;;2.58;0.60;;;;;;;;;;4995553;28;20046;-69
2023/01/14 14:34:12;;;;;;;1.30;0.60;;;;;;;;;;4992488;28;20097;-68
2023/01/14 14:36:40;;;;;;;1.00;0.50;;;;;;;;;;5011736;28;20041;-69
2023/01/14 14:39:19;;;;;;;1.48;0.60;;;;;;;;;;5021107;28;20045;-69
2023/01/14 14:41:45;;;;;;;0.70;0.65;;;;;;;;;;5029174;28;20049;-68
2023/01/14 14:44:17;;;;;;;0.60;0.60;;;;;;;;;;5031046;28;20033;-69
2023/01/14 14:46:43;;;;;;;0.70;0.65;;;;;;;;;;5031915;28;20041;-68
2023/01/14 14:49:33;;;;;;;0.43;0.40;;;;;;;;;;5014322;28;20045;-68
2023/01/14 14:52:05;;;;;;;1.67;0.80;;;;;;;;;;5017772;28;20434;-68
2023/01/14 14:54:32;;;;;;;0.63;0.60;;;;;;;;;;5022985;28;20041;-68
2023/01/14 14:57:00;;;;;;;0.73;0.55;;;;;;;;;;5031370;28;20037;-68
2023/01/14 14:59:27;;;;;;;0.57;0.57;;;;;;;;;;5013563;28;20120;-68
2023/01/14 15:01:54;;;;;;;1.30;0.60;;;;;;;;;;5031367;28;20041;-69
2023/01/14 15:04:21;;;;;;;0.65;0.65;;;;;;;;;;5031044;28;20116;-68
2023/01/14 15:06:49;;;;;;;0.98;0.75;;;;;;;;;;5029327;28;20042;-68
2023/01/14 15:09:19;;;;;;;0.82;0.68;;;;;;;;;;5026006;28;20057;-68
2023/01/14 15:11:46;;;;;;;1.73;0.60;;;;;;;;;;5011645;28;20052;-68
2023/01/14 15:14:32;;;;;;;1.73;0.88;;;;;;;;;;5011496;28;20038;-68
2023/01/14 15:16:58;;;;;;;1.20;1.00;;;;;;;;;;5011041;28;20484;-69
2023/01/14 15:19:25;;;;;;;0.60;0.50;;;;;;;;;;5011845;28;20093;-68
2023/01/14 15:21:51;;;;;;;1.73;0.75;;;;;;;;;;5022697;28;20045;-69
2023/01/14 15:24:22;;;;;;;0.60;0.60;;;;;;;;;;5017104;28;20088;-69
2023/01/14 15:26:49;;;;;;;1.05;0.80;;;;;;;;;;5011458;28;20061;-69
2023/01/14 15:29:19;;;;;;;0.98;0.88;;;;;;;;;;5012042;28;20045;-68
2023/01/14 15:31:45;;;;;;;1.40;1.00;;;;;;;;;;5010937;28;20500;-68